createdAt,value
2018-08-06T00:01:21.720Z,51.46
2018-08-06T00:03:52.065Z,52.01
2018-08-06T00:06:22.500Z,52.51
2018-08-06T00:08:52.852Z,55.53
2018-08-06T00:11:23.289Z,55.34
2018-08-06T00:13:53.587Z,54.07
2018-08-06T00:16:24.220Z,54.39
2018-08-06T00:18:54.537Z,55.48
2018-08-06T00:21:25.013Z,54.63
2018-08-06T00:23:55.312Z,55.27
2018-08-06T00:26:25.911Z,55.73
2018-08-06T00:28:56.233Z,55.70
2018-08-06T00:31:26.789Z,55.77
2018-08-06T00:33:57.084Z,57.04
2018-08-06T00:36:27.556Z,57.44
2018-08-06T00:38:57.792Z,57.50
2018-08-06T00:41:28.193Z,57.46
2018-08-06T00:43:58.534Z,58.40
2018-08-06T00:46:28.909Z,59.40
2018-08-06T00:48:59.294Z,58.12
2018-08-06T00:51:30.198Z,58.62
2018-08-06T00:54:00.917Z,57.83
2018-08-06T00:56:31.805Z,58.27
2018-08-06T00:59:02.054Z,57.74
2018-08-06T01:01:32.404Z,60.06
2018-08-06T01:04:02.765Z,61.71
2018-08-06T01:06:33.216Z,60.36
2018-08-06T01:09:03.794Z,58.82
2018-08-06T01:11:34.294Z,59.07
2018-08-06T01:14:04.820Z,59.75
2018-08-06T01:16:35.144Z,59.57
2018-08-06T01:19:05.794Z,59.74
2018-08-06T01:21:36.438Z,59.20
2018-08-06T01:24:06.842Z,59.67
2018-08-06T01:26:37.554Z,60.02
2018-08-06T01:29:07.869Z,59.45
2018-08-06T01:31:38.220Z,59.38
2018-08-06T01:34:08.613Z,59.46
2018-08-06T01:36:39.182Z,59.16
2018-08-06T01:39:12.363Z,59.04
2018-08-06T01:41:42.784Z,58.29
2018-08-06T01:44:13.102Z,58.22
2018-08-06T01:46:43.836Z,57.56
2018-08-06T01:49:14.193Z,57.50
2018-08-06T01:51:44.673Z,57.61
2018-08-06T01:54:14.934Z,58.47
2018-08-06T01:56:45.371Z,59.24
2018-08-06T01:59:15.620Z,58.75
2018-08-06T02:01:46.053Z,58.45
2018-08-06T02:04:16.445Z,59.54
2018-08-06T02:06:47.085Z,58.85
2018-08-06T02:09:17.356Z,59.16
2018-08-06T02:11:47.857Z,58.87
2018-08-06T02:14:18.169Z,58.78
2018-08-06T02:16:48.567Z,58.97
2018-08-06T02:19:19.836Z,58.50
2018-08-06T02:21:50.207Z,59.54
2018-08-06T02:24:21.088Z,59.75
2018-08-06T02:26:51.488Z,59.00
2018-08-06T02:29:21.904Z,59.72
2018-08-06T02:31:52.433Z,59.36
2018-08-06T02:34:22.866Z,59.70
2018-08-06T02:36:53.389Z,60.26
2018-08-06T02:39:23.724Z,59.65
2018-08-06T02:41:54.439Z,60.35
2018-08-06T02:44:24.830Z,60.37
2018-08-06T02:46:55.380Z,59.89
2018-08-06T02:49:25.661Z,59.56
2018-08-06T02:51:55.995Z,60.05
2018-08-06T02:54:26.297Z,59.76
2018-08-06T02:56:56.637Z,59.91
2018-08-06T02:59:27.171Z,59.12
2018-08-06T03:01:57.528Z,59.57
2018-08-06T03:04:27.914Z,59.48
2018-08-06T03:06:58.305Z,60.08
2018-08-06T03:09:28.800Z,60.10
2018-08-06T03:11:59.072Z,59.92
2018-08-06T03:14:29.358Z,60.08
2018-08-06T03:17:00.006Z,60.24
2018-08-06T03:19:30.493Z,60.88
2018-08-06T03:22:01.817Z,61.68
2018-08-06T03:24:32.212Z,61.49
2018-08-06T03:27:02.544Z,61.05
2018-08-06T03:29:33.168Z,62.25
2018-08-06T03:32:04.049Z,61.49
2018-08-06T03:34:34.446Z,61.70
2018-08-06T03:37:04.825Z,62.01
2018-08-06T03:39:35.178Z,61.26
2018-08-06T03:42:05.702Z,61.26
2018-08-06T03:44:35.960Z,61.10
2018-08-06T03:47:06.429Z,60.40
2018-08-06T03:49:36.806Z,60.80
2018-08-06T03:52:07.302Z,61.24
2018-08-06T03:54:37.604Z,60.81
2018-08-06T03:57:08.154Z,60.96
2018-08-06T03:59:38.506Z,59.74
2018-08-06T04:02:09.432Z,60.01
2018-08-06T04:04:39.969Z,59.53
2018-08-06T04:07:10.863Z,60.00
2018-08-06T04:09:41.564Z,58.65
2018-08-06T04:12:12.351Z,59.87
2018-08-06T04:14:43.065Z,59.66
2018-08-06T04:17:13.860Z,58.20
2018-08-06T04:19:44.529Z,58.91
2018-08-06T04:22:14.985Z,59.42
2018-08-06T04:24:45.276Z,58.74
2018-08-06T04:27:15.660Z,58.31
2018-08-06T04:29:45.881Z,58.08
2018-08-06T04:32:16.331Z,57.37
2018-08-06T04:34:47.045Z,57.72
2018-08-06T04:37:17.805Z,58.17
2018-08-06T04:39:48.460Z,55.89
2018-08-06T04:42:19.110Z,53.49
2018-08-06T04:44:49.793Z,50.51
2018-08-06T04:47:20.530Z,49.77
2018-08-06T04:49:51.241Z,49.34
2018-08-06T04:52:21.969Z,50.04
2018-08-06T04:54:52.946Z,49.98
2018-08-06T04:57:23.614Z,50.47
2018-08-06T04:59:54.324Z,50.53
2018-08-06T05:02:24.929Z,49.22
2018-08-06T05:04:58.132Z,46.71
2018-08-06T05:07:28.443Z,47.62
2018-08-06T05:09:59.265Z,47.13
2018-08-06T05:12:30.036Z,46.20
2018-08-06T05:15:00.696Z,46.25
2018-08-06T05:17:31.318Z,45.72
2018-08-06T05:20:02.346Z,46.41
2018-08-06T05:22:32.993Z,45.50
2018-08-06T05:25:03.781Z,44.69
2018-08-06T05:27:35.174Z,44.77
2018-08-06T05:30:08.505Z,44.51
2018-08-06T05:32:39.280Z,43.67
2018-08-06T05:35:10.941Z,43.83
2018-08-06T05:37:42.342Z,42.61
2018-08-06T05:40:12.748Z,42.94
2018-08-06T05:42:43.294Z,43.74
2018-08-06T05:45:13.972Z,43.50
2018-08-06T05:47:44.629Z,43.11
2018-08-06T05:50:15.445Z,43.27
2018-08-06T05:52:46.084Z,42.89
2018-08-06T05:55:16.857Z,42.12
2018-08-06T05:57:47.533Z,41.39
2018-08-06T06:00:19.717Z,41.75
2018-08-06T06:02:50.310Z,42.47
2018-08-06T06:05:21.033Z,41.52
2018-08-06T06:07:51.733Z,41.44
2018-08-06T06:10:22.688Z,41.21
2018-08-06T06:12:53.452Z,41.18
2018-08-06T06:15:24.465Z,41.59
2018-08-06T06:17:55.224Z,39.72
2018-08-06T06:20:26.002Z,40.12
2018-08-06T06:22:56.575Z,40.64
2018-08-06T06:25:27.937Z,40.44
2018-08-06T06:27:58.639Z,39.42
2018-08-06T06:30:29.693Z,39.89
2018-08-06T06:33:00.398Z,38.69
2018-08-06T06:35:31.281Z,39.57
2018-08-06T06:38:02.008Z,39.72
2018-08-06T06:40:33.709Z,37.23
2018-08-06T06:43:04.446Z,37.40
2018-08-06T06:45:35.388Z,37.52
2018-08-06T06:48:06.047Z,38.37
2018-08-06T06:50:37.032Z,38.14
2018-08-06T06:53:07.864Z,37.95
2018-08-06T06:55:38.598Z,36.33
2018-08-06T06:58:09.410Z,37.46
2018-08-06T07:00:40.598Z,37.57
2018-08-06T07:03:11.186Z,37.07
2018-08-06T07:05:42.873Z,36.22
2018-08-06T07:08:13.389Z,36.87
2018-08-06T07:10:44.188Z,36.42
2018-08-06T07:13:14.914Z,35.64
2018-08-06T07:15:45.693Z,36.24
2018-08-06T07:18:16.262Z,34.73
2018-08-06T07:20:47.134Z,34.41
2018-08-06T07:23:17.800Z,34.38
2018-08-06T07:25:50.029Z,35.94
2018-08-06T07:28:20.624Z,34.48
2018-08-06T07:30:51.157Z,34.44
2018-08-06T07:33:21.892Z,32.90
2018-08-06T07:35:52.798Z,33.58
2018-08-06T07:38:23.459Z,33.99
2018-08-06T07:40:54.489Z,33.12
2018-08-06T07:43:25.239Z,31.93
2018-08-06T07:45:55.937Z,32.23
2018-08-06T07:48:26.625Z,32.62
2018-08-06T07:50:57.699Z,31.66
2018-08-06T07:53:28.566Z,30.92
2018-08-06T07:56:00.413Z,31.91
2018-08-06T07:58:31.438Z,31.88
2018-08-06T08:01:02.419Z,31.66
2018-08-06T08:03:32.609Z,30.97
2018-08-06T08:06:04.809Z,30.39
2018-08-06T08:08:35.741Z,30.69
2018-08-06T08:11:06.746Z,31.49
2018-08-06T08:13:37.144Z,30.24
2018-08-06T08:16:08.161Z,30.33
2018-08-06T08:18:38.283Z,30.17
2018-08-06T08:21:09.210Z,29.72
2018-08-06T08:23:39.887Z,28.72
2018-08-06T08:26:10.689Z,29.16
2018-08-06T08:28:41.081Z,29.33
2018-08-06T08:31:11.655Z,29.06
2018-08-06T08:33:42.125Z,31.08
2018-08-06T08:36:12.553Z,28.62
2018-08-06T08:38:42.941Z,30.81
2018-08-06T08:41:13.469Z,28.13
2018-08-06T08:43:43.826Z,28.79
2018-08-06T08:46:14.329Z,27.88
2018-08-06T08:48:44.793Z,28.88
2018-08-06T08:51:15.249Z,27.67
2018-08-06T08:53:45.995Z,28.96
2018-08-06T08:56:16.176Z,29.30
2018-08-06T08:58:47.153Z,28.68
2018-08-06T09:01:17.625Z,29.93
2018-08-06T09:03:48.008Z,27.35
2018-08-06T09:06:18.745Z,25.44
2018-08-06T09:08:49.141Z,26.49
2018-08-06T09:11:20.004Z,26.75
2018-08-06T09:13:50.435Z,26.11
2018-08-06T09:16:20.961Z,25.68
2018-08-06T09:18:51.446Z,24.10
2018-08-06T09:21:22.011Z,24.91
2018-08-06T09:23:52.502Z,24.93
2018-08-06T09:26:23.279Z,24.53
2018-08-06T09:28:54.046Z,25.33
2018-08-06T09:31:24.863Z,22.43
2018-08-06T09:33:55.627Z,22.83
2018-08-06T09:36:26.422Z,22.30
2018-08-06T09:38:56.809Z,22.86
2018-08-06T09:41:28.181Z,22.75
2018-08-06T09:43:59.383Z,21.52
2018-08-06T09:46:30.457Z,22.46
2018-08-06T09:49:01.045Z,24.95
2018-08-06T09:51:31.915Z,25.22
2018-08-06T09:54:02.669Z,24.61
2018-08-06T09:56:33.153Z,26.06
2018-08-06T09:59:03.554Z,26.96
2018-08-06T10:01:39.082Z,26.92
2018-08-06T10:04:09.818Z,28.42
2018-08-06T10:06:41.700Z,28.09
2018-08-06T10:09:12.316Z,26.76
2018-08-06T10:11:42.697Z,23.76
2018-08-06T10:14:13.420Z,22.15
2018-08-06T10:16:44.279Z,21.60
2018-08-06T10:19:15.083Z,19.58
2018-08-06T10:21:45.889Z,20.57
2018-08-06T10:24:16.557Z,20.72
2018-08-06T10:26:47.537Z,20.23
2018-08-06T10:29:18.225Z,20.25
2018-08-06T10:31:48.965Z,21.35
2018-08-06T10:34:19.713Z,20.73
2018-08-06T10:36:50.533Z,19.97
2018-08-06T10:39:21.397Z,20.12
2018-08-06T10:41:52.158Z,22.43
2018-08-06T10:44:22.641Z,20.44
2018-08-06T10:46:53.463Z,22.28
2018-08-06T10:49:24.199Z,23.32
2018-08-06T10:51:54.816Z,22.19
2018-08-06T10:54:25.637Z,22.76
2018-08-06T10:56:56.677Z,21.25
2018-08-06T10:59:27.475Z,21.62
2018-08-06T11:01:58.158Z,24.14
2018-08-06T11:04:28.831Z,22.53
2018-08-06T11:06:59.854Z,23.65
2018-08-06T11:09:30.514Z,24.63
2018-08-06T11:12:01.237Z,22.83
2018-08-06T11:17:07.886Z,22.51
2018-08-06T11:19:38.540Z,21.20
2018-08-06T11:22:09.524Z,23.17
2018-08-06T11:24:40.106Z,21.97
2018-08-06T11:27:11.272Z,21.73
2018-08-06T11:29:41.901Z,23.12
2018-08-06T11:32:12.557Z,21.50
2018-08-06T11:34:43.218Z,22.34
2018-08-06T11:37:13.966Z,23.33
2018-08-06T11:39:44.605Z,21.62
2018-08-06T11:42:15.397Z,23.18
2018-08-06T11:44:46.163Z,24.55
2018-08-06T11:47:16.841Z,21.68
2018-08-06T11:49:47.489Z,23.33
2018-08-06T11:52:18.541Z,23.22
2018-08-06T11:54:49.133Z,24.20
2018-08-06T11:57:20.355Z,23.72
2018-08-06T11:59:51.003Z,23.80
2018-08-06T12:02:21.792Z,24.54
2018-08-06T12:04:52.269Z,24.20
2018-08-06T12:07:23.154Z,25.75
2018-08-06T12:09:53.825Z,26.59
2018-08-06T12:12:24.665Z,26.45
2018-08-06T12:14:55.386Z,25.81
2018-08-06T12:17:26.418Z,25.99
2018-08-06T12:19:57.074Z,25.28
2018-08-06T12:22:27.855Z,25.29
2018-08-06T12:24:58.526Z,25.80
2018-08-06T12:27:29.396Z,23.56
2018-08-06T12:30:05.202Z,23.21
2018-08-06T12:32:36.191Z,24.44
2018-08-06T12:35:07.518Z,25.08
2018-08-06T12:37:38.324Z,23.25
2018-08-06T12:40:13.364Z,21.61
2018-08-06T12:42:44.313Z,21.60
2018-08-06T12:45:15.954Z,22.65
2018-08-06T12:47:47.134Z,21.04
2018-08-06T12:50:18.408Z,22.23
2018-08-06T12:52:49.366Z,23.02
2018-08-06T12:55:20.121Z,24.64
2018-08-06T12:57:50.905Z,22.97
2018-08-06T13:00:24.940Z,23.35
2018-08-06T13:02:56.177Z,22.06
2018-08-06T13:05:26.770Z,22.62
2018-08-06T13:07:57.679Z,21.98
2018-08-06T13:10:28.517Z,19.67
2018-08-06T13:12:59.290Z,21.62
2018-08-06T13:15:29.910Z,20.88
2018-08-06T13:18:00.717Z,21.90
2018-08-06T13:20:31.466Z,21.68
2018-08-06T13:23:01.949Z,21.43
2018-08-06T13:25:32.524Z,21.25
2018-08-06T13:28:04.585Z,22.25
2018-08-06T13:30:35.374Z,22.37
2018-08-06T13:33:06.301Z,25.08
2018-08-06T13:35:37.073Z,25.04
2018-08-06T13:38:08.674Z,24.91
2018-08-06T13:40:39.525Z,24.66
2018-08-06T13:43:11.129Z,23.16
2018-08-06T13:45:41.781Z,22.61
2018-08-06T13:48:13.363Z,23.33
2018-08-06T13:50:43.869Z,22.38
2018-08-06T13:53:14.710Z,22.04
2018-08-06T13:55:45.379Z,21.86
2018-08-06T13:58:16.031Z,20.37
2018-08-06T14:00:46.698Z,20.44
2018-08-06T14:03:17.605Z,21.04
2018-08-06T14:05:48.263Z,18.97
2018-08-06T14:08:19.188Z,20.93
2018-08-06T14:10:50.133Z,19.51
2018-08-06T14:13:20.925Z,20.74
2018-08-06T14:15:51.618Z,21.18
2018-08-06T14:18:22.391Z,20.45
2018-08-06T14:20:53.118Z,23.38
2018-08-06T14:23:23.530Z,21.89
2018-08-06T14:25:54.296Z,20.41
2018-08-06T14:28:25.121Z,22.72
2018-08-06T14:30:55.869Z,21.89
2018-08-06T14:33:26.993Z,20.60
2018-08-06T14:35:57.710Z,20.87
2018-08-06T14:38:28.498Z,21.39
2018-08-06T14:40:59.009Z,20.66
2018-08-06T14:43:29.691Z,21.88
2018-08-06T14:46:00.473Z,23.35
2018-08-06T14:48:31.161Z,22.26
2018-08-06T14:51:01.781Z,21.41
2018-08-06T14:53:32.571Z,22.37
2018-08-06T14:56:03.441Z,21.88
2018-08-06T14:58:34.368Z,22.05
2018-08-06T15:01:05.153Z,23.66
2018-08-06T15:03:35.988Z,24.00
2018-08-06T15:06:06.851Z,24.85
2018-08-06T15:08:37.514Z,22.47
2018-08-06T15:11:08.282Z,25.30
2018-08-06T15:13:39.089Z,24.77
2018-08-06T15:16:09.798Z,24.40
2018-08-06T15:18:40.863Z,24.90
2018-08-06T15:21:11.505Z,25.01
2018-08-06T15:23:42.318Z,25.87
2018-08-06T15:26:13.393Z,24.76
2018-08-06T15:28:44.053Z,25.46
2018-08-06T15:31:14.305Z,26.68
2018-08-06T15:33:45.268Z,27.12
2018-08-06T15:36:15.883Z,27.53
2018-08-06T15:38:46.388Z,27.45
2018-08-06T15:41:17.152Z,27.56
2018-08-06T15:43:47.852Z,28.91
2018-08-06T15:46:18.155Z,27.95
2018-08-06T15:48:48.646Z,29.52
2018-08-06T15:51:19.021Z,29.12
2018-08-06T15:53:49.697Z,28.37
2018-08-06T15:56:20.325Z,29.06
2018-08-06T15:58:51.111Z,30.96
2018-08-06T16:01:21.363Z,31.75
2018-08-06T16:03:51.821Z,28.68
2018-08-06T16:06:22.155Z,29.62
2018-08-06T16:08:52.468Z,29.95
2018-08-06T16:11:22.945Z,31.41
2018-08-06T16:13:53.601Z,29.78
2018-08-06T16:16:23.852Z,29.46
2018-08-06T16:18:54.437Z,28.52
2018-08-06T16:21:24.838Z,29.59
2018-08-06T16:23:55.253Z,28.31
2018-08-06T16:26:26.069Z,31.21
2018-08-06T16:28:56.883Z,29.24
2018-08-06T16:31:27.615Z,29.76
2018-08-06T16:33:58.541Z,30.28
2018-08-06T16:36:28.822Z,30.42
2018-08-06T16:38:59.185Z,29.80
2018-08-06T16:41:29.912Z,31.39
2018-08-06T16:44:00.536Z,31.44
2018-08-06T16:46:30.891Z,31.68
2018-08-06T16:49:01.641Z,31.68
2018-08-06T16:51:32.128Z,31.32
2018-08-06T16:54:02.809Z,32.29
2018-08-06T16:56:33.343Z,32.27
2018-08-06T16:59:03.660Z,32.99
2018-08-06T17:01:34.029Z,33.48
2018-08-06T17:04:04.700Z,33.44
2018-08-06T17:06:35.268Z,33.55
2018-08-06T17:09:07.629Z,33.15
2018-08-06T17:11:38.032Z,34.91
2018-08-06T17:14:08.832Z,35.36
2018-08-06T17:16:39.601Z,35.39
2018-08-06T17:19:10.339Z,35.30
2018-08-06T17:21:41.242Z,35.69
2018-08-06T17:24:11.961Z,35.65
2018-08-06T17:26:42.724Z,36.43
2018-08-06T17:29:13.065Z,36.20
2018-08-06T17:31:43.485Z,36.63
2018-08-06T17:34:13.871Z,36.63
2018-08-06T17:36:44.136Z,35.95
2018-08-06T17:39:15.004Z,36.91
2018-08-06T17:41:45.692Z,37.50
2018-08-06T17:44:16.485Z,36.41
2018-08-06T17:46:51.185Z,38.09
2018-08-06T17:49:21.572Z,37.42
2018-08-06T17:51:51.972Z,38.05
2018-08-06T17:54:22.341Z,37.64
2018-08-06T17:56:52.600Z,37.79
2018-08-06T17:59:23.085Z,38.76
2018-08-06T18:01:53.394Z,37.94
2018-08-06T18:04:24.287Z,37.75
2018-08-06T18:06:54.997Z,37.75
2018-08-06T18:09:25.833Z,38.34
2018-08-06T18:11:56.437Z,38.04
2018-08-06T18:14:27.230Z,39.23
2018-08-06T18:16:57.720Z,39.33
2018-08-06T18:19:28.661Z,39.64
2018-08-06T18:21:59.344Z,40.13
2018-08-06T18:24:30.041Z,40.19
2018-08-06T18:27:00.732Z,41.11
2018-08-06T18:29:31.368Z,41.01
2018-08-06T18:32:02.151Z,41.17
2018-08-06T18:34:33.091Z,41.21
2018-08-06T18:37:03.676Z,41.94
2018-08-06T18:39:34.509Z,42.14
2018-08-06T18:42:05.005Z,41.84
2018-08-06T18:44:35.518Z,41.55
2018-08-06T18:47:06.669Z,41.52
2018-08-06T18:49:38.430Z,42.09
2018-08-06T18:52:09.184Z,42.45
2018-08-06T18:54:40.237Z,42.52
2018-08-06T18:57:10.888Z,42.60
2018-08-06T18:59:41.653Z,42.67
2018-08-06T19:02:12.350Z,43.24
2018-08-06T19:04:43.177Z,43.78
2018-08-06T19:07:13.488Z,44.60
2018-08-06T19:09:44.384Z,44.42
2018-08-06T19:12:19.709Z,45.11
2018-08-06T19:14:50.772Z,44.67
2018-08-06T19:17:21.425Z,44.93
2018-08-06T19:19:52.322Z,45.53
2018-08-06T19:22:22.670Z,45.39
2018-08-06T19:24:58.073Z,45.44
2018-08-06T19:27:28.793Z,46.16
2018-08-06T19:29:59.943Z,45.86
2018-08-06T19:32:30.276Z,45.31
2018-08-06T19:35:00.778Z,45.92
2018-08-06T19:37:36.248Z,46.25
2018-08-06T19:40:08.510Z,46.20
2018-08-06T19:42:43.855Z,46.37
2018-08-06T19:45:14.092Z,46.69
2018-08-06T19:47:44.476Z,46.30
2018-08-06T19:50:20.339Z,46.87
2018-08-06T19:52:50.810Z,46.39
2018-08-06T19:55:26.472Z,46.40
2018-08-06T19:57:56.993Z,47.58
2018-08-06T20:00:27.569Z,46.38
2018-08-06T20:02:58.188Z,46.25
2018-08-06T20:05:28.791Z,46.40
2018-08-06T20:07:59.133Z,46.07
2018-08-06T20:10:30.193Z,46.41
2018-08-06T20:13:00.560Z,46.42
2018-08-06T20:15:31.335Z,47.06
2018-08-06T20:18:01.774Z,49.42
2018-08-06T20:20:32.072Z,52.62
2018-08-06T20:23:02.454Z,51.93
2018-08-06T20:25:32.896Z,51.66
2018-08-06T20:28:03.296Z,50.87
2018-08-06T20:30:34.234Z,49.94
2018-08-06T20:33:04.199Z,50.41
2018-08-06T20:35:34.764Z,50.98
2018-08-06T20:38:05.179Z,50.99
2018-08-06T20:40:35.601Z,50.48
2018-08-06T20:43:06.033Z,50.80
2018-08-06T20:45:36.471Z,49.85
2018-08-06T20:48:07.732Z,50.58
2018-08-06T20:50:38.169Z,50.82
2018-08-06T20:53:08.581Z,50.60
2018-08-06T20:55:39.029Z,49.57
2018-08-06T20:58:09.429Z,49.74
2018-08-06T21:00:39.829Z,51.55
2018-08-06T21:03:10.097Z,51.52
2018-08-06T21:05:40.476Z,51.12
2018-08-06T21:08:10.965Z,49.92
2018-08-06T21:10:41.712Z,50.41
2018-08-06T21:13:12.124Z,51.00
2018-08-06T21:15:42.637Z,51.22
2018-08-06T21:18:13.017Z,50.48
2018-08-06T21:20:43.673Z,50.13
2018-08-06T21:23:13.996Z,50.39
2018-08-06T21:25:44.633Z,51.25
2018-08-06T21:28:15.054Z,51.54
2018-08-06T21:30:45.619Z,51.40
2018-08-06T21:33:16.019Z,52.03
2018-08-06T21:35:46.808Z,50.71
2018-08-06T21:38:17.164Z,51.88
2018-08-06T21:40:47.564Z,50.04
2018-08-06T21:43:17.896Z,49.52
2018-08-06T21:45:48.312Z,49.51
2018-08-06T21:48:18.667Z,49.81
2018-08-06T21:50:50.329Z,48.05
2018-08-06T21:53:21.296Z,48.82
2018-08-06T21:55:51.765Z,48.00
2018-08-06T21:58:22.070Z,48.91
2018-08-06T22:00:52.718Z,48.77
2018-08-06T22:03:23.099Z,49.36
2018-08-06T22:05:53.393Z,49.88
2018-08-06T22:08:23.729Z,48.84
2018-08-06T22:10:54.152Z,49.88
2018-08-06T22:13:24.613Z,50.56
2018-08-06T22:15:55.137Z,51.60
2018-08-06T22:18:25.497Z,51.66
2018-08-06T22:20:56.043Z,51.70
2018-08-06T22:23:26.458Z,51.11
2018-08-06T22:25:57.052Z,50.10
2018-08-06T22:28:27.309Z,50.62
2018-08-06T22:30:57.798Z,50.86
2018-08-06T22:33:28.093Z,51.69
2018-08-06T22:35:58.530Z,51.16
2018-08-06T22:38:28.868Z,52.40
2018-08-06T22:40:59.233Z,53.16
2018-08-06T22:43:29.541Z,53.50
2018-08-06T22:45:59.969Z,52.23
2018-08-06T22:48:30.248Z,52.14
2018-08-06T22:51:00.627Z,52.14
2018-08-06T22:53:31.158Z,52.26
2018-08-06T22:56:06.754Z,52.43
2018-08-06T22:58:38.006Z,52.24
2018-08-06T23:01:10.864Z,51.61
2018-08-06T23:03:41.160Z,52.46
2018-08-06T23:06:11.565Z,52.84
2018-08-06T23:08:41.871Z,51.86
2018-08-06T23:11:12.496Z,51.94
2018-08-06T23:13:42.861Z,51.78
2018-08-06T23:16:14.869Z,50.59
2018-08-06T23:18:45.172Z,50.61
2018-08-06T23:21:15.509Z,50.94
2018-08-06T23:23:45.880Z,51.77
2018-08-06T23:26:16.496Z,51.70
2018-08-06T23:28:46.889Z,51.81
2018-08-06T23:31:18.221Z,51.85
2018-08-06T23:33:48.517Z,52.46
2018-08-06T23:36:18.977Z,52.85
2018-08-06T23:38:49.291Z,53.52
2018-08-06T23:41:19.664Z,53.31
2018-08-06T23:43:49.924Z,53.55
2018-08-06T23:46:20.267Z,53.24
2018-08-06T23:48:50.566Z,53.57
2018-08-06T23:51:21.317Z,53.47
2018-08-06T23:53:51.653Z,53.91
2018-08-06T23:56:22.097Z,54.30
2018-08-06T23:58:52.336Z,53.56
